Time;durP1;ratioP1;P1;durP2;ratioP2;P2;SDS_P1;SDS_P2;PMS_P1;PMS_P2;Temp;Humidity;BMP_temperature;BMP_pressure;BME280_temperature;BME280_humidity;BME280_pressure;Samples;Min_cycle;Max_cycle;Signal;HPM_P1;HPM_P2
2022/09/05 00:01:28;;;;;;;18.30;1.58;;;;;;;14.89;82.44;100344.84;5055141;28;20045;-69
2022/09/05 00:04:06;;;;;;;0.57;0.57;;;;;;;15.01;82.09;100357.63;5053229;28;20041;-69
2022/09/05 00:07:04;;;;;;;0.57;0.57;;;;;;;15.06;81.98;100358.44;5054679;28;20524;-69
2022/09/05 00:10:03;;;;;;;0.50;0.50;;;;;;;15.08;82.32;100356.69;5054358;28;20045;-68
2022/09/05 00:12:36;;;;;;;0.63;0.63;;;;;;;15.13;82.22;100357.50;5054418;28;20421;-69
2022/09/05 00:15:24;;;;;;;2.72;1.02;;;;;;;15.16;82.11;100360.06;5054264;28;20510;-69
2022/09/05 00:18:11;;;;;;;1.25;0.82;;;;;;;15.19;82.40;100360.03;5054145;28;20053;-69
2022/09/05 00:21:05;;;;;;;2.13;1.52;;;;;;;15.20;82.79;100356.59;5054302;28;20118;-70
2022/09/05 00:24:10;;;;;;;1.42;1.30;;;;;;;15.23;82.62;100361.72;5054106;28;20037;-69
2022/09/05 00:27:10;;;;;;;2.35;1.30;;;;;;;15.23;82.45;100351.44;5053972;28;20094;-69
2022/09/05 00:29:55;;;;;;;1.05;0.98;;;;;;;15.22;82.45;100350.56;5053967;28;20068;-69
2022/09/05 00:33:15;;;;;;;0.50;0.50;;;;;;;15.18;82.27;100353.19;5054029;28;20106;-70
2022/09/05 00:35:56;;;;;;;0.80;0.80;;;;;;;15.18;82.75;100348.03;5053918;28;20098;-70
2022/09/05 00:38:30;;;;;;;0.93;0.90;;;;;;;15.16;82.49;100350.66;5053872;28;20056;-69
2022/09/05 00:41:09;;;;;;;2.30;0.95;;;;;;;15.16;81.99;100352.34;5053818;28;20075;-69
2022/09/05 00:43:42;;;;;;;1.63;1.20;;;;;;;15.11;82.03;100347.25;5053937;28;20052;-68
2022/09/05 00:46:16;;;;;;;0.65;0.65;;;;;;;15.14;82.26;100344.63;5053760;28;20044;-69
2022/09/05 00:48:51;;;;;;;0.57;0.57;;;;;;;15.16;81.91;100344.63;5053724;28;20056;-70
2022/09/05 00:51:32;;;;;;;1.50;1.40;;;;;;;15.16;82.10;100344.63;5053877;28;20159;-70
2022/09/05 00:54:30;;;;;;;2.35;0.75;;;;;;;15.18;81.92;100342.91;5053549;28;20051;-69
2022/09/05 00:57:29;;;;;;;0.90;0.90;;;;;;;15.11;81.88;100336.97;5053528;28;20041;-70
2022/09/05 01:00:11;;;;;;;0.82;0.82;;;;;;;15.09;81.95;100336.09;5053591;28;20099;-70
2022/09/05 01:03:14;;;;;;;0.77;0.77;;;;;;;15.04;81.71;100334.47;5053795;28;20044;-69
2022/09/05 01:06:04;;;;;;;0.80;0.73;;;;;;;15.01;81.93;100334.47;5053498;28;20068;-69
2022/09/05 01:08:52;;;;;;;1.15;0.98;;;;;;;15.03;82.08;100337.88;5053104;28;20059;-70
2022/09/05 01:11:38;;;;;;;0.55;0.55;;;;;;;15.06;82.37;100332.72;5053761;28;20102;-69
2022/09/05 01:14:22;;;;;;;0.60;0.60;;;;;;;15.06;82.20;100332.72;5053382;28;20092;-70
2022/09/05 01:17:11;;;;;;;0.80;0.80;;;;;;;15.05;82.19;100331.00;5053707;28;20052;-70
2022/09/05 01:20:00;;;;;;;2.40;0.98;;;;;;;15.06;82.11;100338.72;5053729;28;20566;-69
2022/09/05 01:23:16;;;;;;;0.63;0.63;;;;;;;15.04;82.49;100334.47;5053432;28;20037;-70
2022/09/05 01:26:02;;;;;;;0.80;0.80;;;;;;;15.03;82.48;100337.88;5053527;28;20037;-70
2022/09/05 01:28:39;;;;;;;1.25;1.15;;;;;;;15.01;82.52;100334.47;5052133;28;20103;-71
2022/09/05 01:31:40;;;;;;;1.85;1.27;;;;;;;14.99;82.30;100331.94;5055753;28;20047;-69
2022/09/05 01:34:19;;;;;;;1.55;1.15;;;;;;;15.01;82.49;100334.47;5057420;28;20403;-70
2022/09/05 01:37:09;;;;;;;1.52;0.98;;;;;;;15.03;82.65;100333.59;5057535;28;20487;-69
2022/09/05 01:40:19;;;;;;;8.25;1.55;;;;;;;14.99;82.75;100334.50;5057269;28;20044;-71
2022/09/05 01:43:03;;;;;;;2.83;1.05;;;;;;;14.98;82.63;100331.91;5057092;28;20049;-69
2022/09/05 01:45:47;;;;;;;1.75;1.15;;;;;;;14.95;82.76;100331.97;5057572;28;20099;-69
2022/09/05 01:48:36;;;;;;;1.42;1.33;;;;;;;14.93;82.83;100328.53;5057346;28;20402;-70
2022/09/05 01:51:26;;;;;;;0.70;0.70;;;;;;;14.94;82.80;100332.81;5056035;28;20156;-69
2022/09/05 01:54:17;;;;;;;1.10;1.05;;;;;;;14.95;82.49;100326.81;5056839;28;20052;-70
2022/09/05 01:57:07;;;;;;;0.60;0.60;;;;;;;14.91;82.31;100327.69;5057180;28;20553;-71
2022/09/05 01:59:46;;;;;;;1.65;0.80;;;;;;;14.88;82.03;100327.72;5057221;28;20044;-69
2022/09/05 02:02:33;;;;;;;2.25;1.00;;;;;;;14.86;82.28;100329.44;5057823;28;20079;-71
2022/09/05 02:05:20;;;;;;;1.02;1.02;;;;;;;14.83;81.88;100329.50;5056600;28;20049;-70
2022/09/05 02:08:30;;;;;;;0.73;0.73;;;;;;;14.77;81.92;100315.81;5055346;28;20057;-69
2022/09/05 02:11:05;;;;;;;0.75;0.75;;;;;;;14.73;82.15;100326.97;5056630;28;20049;-69
2022/09/05 02:13:50;;;;;;;0.85;0.85;;;;;;;14.71;82.56;100338.97;5056563;28;20514;-69
2022/09/05 02:16:26;;;;;;;1.38;1.27;;;;;;;14.72;82.30;100338.13;5056730;28;20454;-70
2022/09/05 02:19:04;;;;;;;3.13;1.10;;;;;;;14.68;82.05;100344.13;5056464;28;20080;-69
2022/09/05 02:21:48;;;;;;;0.70;0.70;;;;;;;14.62;82.65;100341.63;5056721;28;20045;-71
2022/09/05 02:24:33;;;;;;;1.10;1.00;;;;;;;14.57;82.55;100340.78;5056519;28;20376;-70
2022/09/05 02:27:21;;;;;;;0.73;0.68;;;;;;;14.57;82.56;100337.34;5056534;28;20049;-70
2022/09/05 02:30:14;;;;;;;1.63;1.25;;;;;;;14.55;82.32;100334.81;5056216;28;20036;-70
2022/09/05 02:32:55;;;;;;;1.48;1.35;;;;;;;14.57;82.33;100343.34;5056166;28;20483;-70
2022/09/05 02:35:31;;;;;;;0.60;0.60;;;;;;;14.57;82.32;100345.94;5056412;28;20045;-70
2022/09/05 02:38:07;;;;;;;1.17;1.08;;;;;;;14.58;82.52;100345.06;5056287;28;20075;-69
2022/09/05 02:40:59;;;;;;;1.15;1.05;;;;;;;14.56;82.31;100341.66;5056344;28;20455;-69
2022/09/05 02:43:56;;;;;;;1.67;1.05;;;;;;;14.59;82.79;100348.47;5055942;28;20045;-70
2022/09/05 02:46:54;;;;;;;0.82;0.70;;;;;;;14.56;82.31;100346.81;5055938;28;20426;-70
2022/09/05 02:49:38;;;;;;;0.90;0.90;;;;;;;14.56;82.56;100349.38;5055977;28;20518;-70
2022/09/05 02:52:32;;;;;;;1.45;1.05;;;;;;;14.55;82.33;100347.66;5055753;28;20513;-69
2022/09/05 02:55:32;;;;;;;1.05;0.88;;;;;;;14.53;82.78;100346.81;5056342;28;20502;-69
2022/09/05 02:58:42;;;;;;;1.48;0.93;;;;;;;14.53;82.51;100351.94;5055565;28;20529;-70
2022/09/05 03:01:45;;;;;;;0.55;0.52;;;;;;;14.53;82.59;100351.09;5055939;28;20049;-69
2022/09/05 03:04:27;;;;;;;1.30;1.20;;;;;;;14.54;82.30;100352.81;5055568;28;20102;-69
2022/09/05 03:07:17;;;;;;;0.88;0.75;;;;;;;14.54;82.43;100356.22;5055466;28;20048;-69
2022/09/05 03:09:54;;;;;;;;;;;;;;;14.54;82.53;100353.66;5056280;28;20053;-71
2022/09/05 03:12:49;;;;;;;1.63;0.90;;;;;;;14.50;82.47;100357.09;5055789;28;20016;-70
2022/09/05 03:15:47;;;;;;;1.27;1.17;;;;;;;14.49;82.44;100355.38;5055413;28;20053;-71
2022/09/05 03:18:45;;;;;;;0.82;0.73;;;;;;;14.48;82.03;100351.13;5055426;28;20053;-70
2022/09/05 03:21:46;;;;;;;0.52;0.52;;;;;;;14.48;82.25;100348.56;5055319;28;20071;-69
2022/09/05 03:24:41;;;;;;;16.67;2.08;;;;;;;14.49;82.31;100347.69;5055376;28;20491;-69
2022/09/05 03:27:52;;;;;;;1.33;1.17;;;;;;;14.48;82.08;100343.41;5055297;28;20132;-70
2022/09/05 03:30:23;;;;;;;1.92;1.77;;;;;;;14.50;82.11;100354.53;5038012;28;20080;-69
2022/09/05 03:33:27;;;;;;;0.70;0.70;;;;;;;14.50;81.86;100357.09;5055075;28;20053;-69
2022/09/05 03:36:25;;;;;;;0.90;0.90;;;;;;;14.48;81.92;100348.56;5048918;28;20139;-71
2022/09/05 03:39:15;;;;;;;1.73;1.25;;;;;;;14.47;81.87;100356.25;5055157;28;20053;-71
2022/09/05 03:41:59;;;;;;;2.00;0.95;;;;;;;14.48;82.05;100352.84;5054860;28;20491;-71
2022/09/05 03:44:44;;;;;;;0.70;0.70;;;;;;;14.48;82.01;100358.84;5054706;28;20560;-71
2022/09/05 03:47:33;;;;;;;0.40;0.40;;;;;;;14.50;82.19;100354.53;5055324;28;20445;-70
2022/09/05 03:50:22;;;;;;;1.77;1.30;;;;;;;14.45;81.75;100358.84;5054983;28;20045;-71
2022/09/05 03:53:41;;;;;;;1.03;0.67;;;;;;;14.40;82.01;100364.84;5054350;28;20083;-71
2022/09/05 03:56:54;;;;;;;0.80;0.68;;;;;;;14.34;82.37;100363.19;5053599;28;20285;-69
2022/09/05 04:00:06;;;;;;;1.13;1.00;;;;;;;14.35;81.90;100357.19;5054692;28;20411;-69
2022/09/05 04:02:49;;;;;;;1.98;1.45;;;;;;;14.39;82.24;100368.31;5055016;28;20482;-71
2022/09/05 04:05:43;;;;;;;1.60;1.30;;;;;;;14.38;82.31;100362.31;5054656;28;20116;-69
2022/09/05 04:08:41;;;;;;;3.75;2.17;;;;;;;14.38;82.00;100366.59;5054414;28;20557;-71
2022/09/05 04:11:15;;;;;;;;;;;;;;;14.39;81.99;100361.47;5054758;28;20048;-71
2022/09/05 04:13:50;;;;;;;1.13;1.02;;;;;;;14.41;82.05;100367.44;5054655;28;19920;-69
2022/09/05 04:16:24;;;;;;;2.05;0.90;;;;;;;14.40;82.21;100367.41;5054197;28;20132;-71
2022/09/05 04:18:56;;;;;;;7.88;2.30;;;;;;;14.39;82.07;100374.31;5054107;28;20094;-69
2022/09/05 04:21:30;;;;;;;2.05;1.70;;;;;;;14.39;82.52;100376.88;5054330;28;20399;-69
2022/09/05 04:24:07;;;;;;;0.98;0.98;;;;;;;14.43;82.42;100380.25;5052843;28;20499;-71
2022/09/05 04:26:53;;;;;;;0.98;0.90;;;;;;;14.45;81.96;100383.66;5054068;28;20049;-71
2022/09/05 04:29:34;;;;;;;1.08;0.98;;;;;;;14.46;81.98;100380.25;5054183;28;20131;-70
2022/09/05 04:32:20;;;;;;;1.58;0.85;;;;;;;14.45;82.19;100384.53;5054195;28;20114;-69
2022/09/05 04:35:17;;;;;;;1.08;0.98;;;;;;;14.49;82.42;100381.06;5054184;28;20044;-69
2022/09/05 04:37:58;;;;;;;0.70;0.70;;;;;;;14.26;82.61;100340.94;5053779;28;20041;-71
2022/09/05 04:40:47;;;;;;;3.72;1.52;;;;;;;14.54;82.44;100384.47;5053005;28;20147;-70
2022/09/05 04:43:26;;;;;;;0.70;0.70;;;;;;;14.54;82.58;100384.47;5053728;28;20065;-70
2022/09/05 04:46:02;;;;;;;1.00;0.98;;;;;;;14.54;82.61;100397.31;5053995;28;20087;-69
2022/09/05 04:48:37;;;;;;;1.05;0.80;;;;;;;14.56;82.80;100392.19;5053705;28;20053;-69
2022/09/05 04:51:11;;;;;;;1.02;0.90;;;;;;;14.62;82.92;100398.13;5053881;28;20072;-70
2022/09/05 04:54:14;;;;;;;0.85;0.82;;;;;;;14.66;83.28;100394.69;5053642;28;20052;-70
2022/09/05 04:56:49;;;;;;;0.70;0.70;;;;;;;14.72;83.37;100394.66;5051626;28;20044;-69
2022/09/05 04:59:25;;;;;;;0.77;0.75;;;;;;;14.71;83.17;100392.94;5053830;28;20406;-70
2022/09/05 05:02:21;;;;;;;2.15;1.40;;;;;;;14.82;82.80;100399.72;5052800;28;20079;-68
2022/09/05 05:05:19;;;;;;;0.75;0.75;;;;;;;14.82;83.04;100399.72;5053139;28;20127;-68
2022/09/05 05:08:16;;;;;;;1.00;0.98;;;;;;;14.87;83.84;100403.13;5053393;28;20625;-70
2022/09/05 05:11:11;;;;;;;0.85;0.85;;;;;;;14.92;83.53;100398.81;5053341;28;20048;-69
2022/09/05 05:14:06;;;;;;;1.20;1.10;;;;;;;15.00;83.62;100399.59;5053948;28;20060;-70
2022/09/05 05:17:00;;;;;;;2.53;1.33;;;;;;;15.11;83.81;100405.53;5053408;28;20041;-69
2022/09/05 05:19:56;;;;;;;0.50;0.50;;;;;;;15.19;83.99;100406.31;5053427;28;20512;-70
2022/09/05 05:22:51;;;;;;;0.63;0.60;;;;;;;15.27;84.40;100407.13;5053463;28;20434;-69
2022/09/05 05:25:20;;;;;;;1.30;1.13;;;;;;;15.33;84.24;100405.34;5053253;28;20049;-69
2022/09/05 05:28:07;;;;;;;1.05;0.95;;;;;;;15.43;84.44;100406.09;5053246;28;20057;-69
2022/09/05 05:30:55;;;;;;;2.50;1.73;;;;;;;15.54;84.36;100411.22;5053220;28;20068;-69
2022/09/05 05:33:35;;;;;;;1.85;1.15;;;;;;;15.63;84.51;100419.69;5053207;28;20063;-69
2022/09/05 05:36:09;;;;;;;0.73;0.70;;;;;;;15.74;83.88;100415.28;5051989;28;20544;-71
2022/09/05 05:38:48;;;;;;;1.08;0.98;;;;;;;15.82;84.04;100410.91;5053886;28;20143;-70
2022/09/05 05:41:21;;;;;;;0.80;0.80;;;;;;;15.91;83.79;100413.41;5053506;28;20098;-70
2022/09/05 05:43:52;;;;;;;0.50;0.50;;;;;;;15.99;83.56;100415.91;5053322;28;20049;-69
2022/09/05 05:46:34;;;;;;;1.27;1.17;;;;;;;16.02;83.17;100403.84;5053123;28;20091;-70
2022/09/05 05:49:31;;;;;;;1.20;0.90;;;;;;;16.17;82.88;100422.56;5053397;28;20578;-70
2022/09/05 05:52:19;;;;;;;0.85;0.85;;;;;;;16.24;83.22;100419.06;5052990;28;20502;-70
2022/09/05 05:54:53;;;;;;;0.80;0.80;;;;;;;16.40;82.75;100416.28;5053036;28;20047;-68
2022/09/05 05:58:08;;;;;;;1.35;1.08;;;;;;;16.47;82.15;100414.44;5053305;28;20044;-69
2022/09/05 06:01:02;;;;;;;1.50;1.27;;;;;;;16.55;81.96;100416.13;5052917;28;20069;-68
2022/09/05 06:04:04;;;;;;;2.00;1.40;;;;;;;16.72;81.48;100413.31;5052873;28;20057;-69
2022/09/05 06:06:44;;;;;;;0.80;0.80;;;;;;;16.85;81.09;100413.97;5053086;28;20143;-69
2022/09/05 06:09:45;;;;;;;1.48;1.38;;;;;;;16.92;80.37;100421.59;5052890;28;20057;-69
2022/09/05 06:13:01;;;;;;;2.58;1.35;;;;;;;17.04;79.95;100415.38;5041859;28;20052;-69
2022/09/05 06:16:21;;;;;;;0.60;0.60;;;;;;;17.21;79.77;100413.41;5050303;28;20049;-69
2022/09/05 06:19:30;;;;;;;0.80;0.80;;;;;;;17.26;79.47;100432.25;5056093;28;20047;-69
2022/09/05 06:22:42;;;;;;;2.05;1.20;;;;;;;17.30;78.99;100418.41;5056351;28;20059;-69
2022/09/05 06:25:45;;;;;;;1.90;1.30;;;;;;;17.37;78.45;100425.22;5057042;28;20433;-68
2022/09/05 06:28:25;;;;;;;0.55;0.55;;;;;;;17.37;78.15;100426.03;5054965;28;20441;-69
2022/09/05 06:31:11;;;;;;;1.25;1.13;;;;;;;17.50;78.05;100420.66;5056172;28;20055;-68
2022/09/05 06:34:20;;;;;;;1.80;1.27;;;;;;;17.68;77.71;100425.56;5056305;28;20075;-69
2022/09/05 06:37:16;;;;;;;2.83;1.42;;;;;;;17.75;77.27;100422.84;5056087;28;20048;-69
2022/09/05 06:40:03;;;;;;;1.50;1.40;;;;;;;17.86;76.96;100431.25;5056016;28;20076;-69
2022/09/05 06:42:44;;;;;;;1.27;1.10;;;;;;;17.93;76.58;100422.50;5055990;28;20075;-68
2022/09/05 06:45:31;;;;;;;0.85;0.77;;;;;;;17.99;76.28;100437.03;5055855;28;20072;-68
2022/09/05 06:48:11;;;;;;;0.93;0.88;;;;;;;18.06;75.99;100436.03;5056168;28;20410;-69
2022/09/05 06:51:01;;;;;;;0.65;0.65;;;;;;;18.20;75.71;100431.47;5056129;28;20056;-68
2022/09/05 06:54:04;;;;;;;2.65;1.38;;;;;;;18.24;75.41;100437.41;5056120;28;20052;-69
2022/09/05 06:56:46;;;;;;;1.35;1.25;;;;;;;18.40;75.33;100438.81;5055653;28;20608;-69
2022/09/05 06:59:44;;;;;;;0.73;0.73;;;;;;;18.52;75.05;100434.25;5055649;28;20049;-69
2022/09/05 07:02:21;;;;;;;1.10;0.85;;;;;;;18.64;74.86;100439.16;5055863;28;20045;-69
2022/09/05 07:05:31;;;;;;;1.05;0.90;;;;;;;18.81;74.37;100440.56;5055550;28;20044;-69
2022/09/05 07:08:25;;;;;;;1.80;1.27;;;;;;;18.97;73.87;100442.78;5055522;28;20111;-69
2022/09/05 07:11:11;;;;;;;0.93;0.90;;;;;;;19.09;73.38;100436.47;5055478;28;20076;-68
2022/09/05 07:13:56;;;;;;;1.00;0.85;;;;;;;19.15;72.99;100441.47;5055437;28;20080;-69
2022/09/05 07:16:37;;;;;;;1.30;1.00;;;;;;;19.17;72.61;100439.72;5055616;28;20055;-69
2022/09/05 07:19:24;;;;;;;1.75;1.00;;;;;;;19.32;72.43;100434.16;5055264;28;20064;-68
2022/09/05 07:22:17;;;;;;;1.33;1.05;;;;;;;19.38;71.64;100442.69;5054509;28;20398;-68
2022/09/05 07:25:08;;;;;;;0.60;0.60;;;;;;;19.50;71.39;100444.13;5055128;28;20072;-68
2022/09/05 07:27:43;;;;;;;1.80;1.10;;;;;;;19.59;70.99;100443.88;5054328;28;20049;-68
2022/09/05 07:30:34;;;;;;;2.00;1.58;;;;;;;19.74;70.71;100448.69;5054921;28;20127;-68
2022/09/05 07:33:04;;;;;;;0.98;0.70;;;;;;;19.86;70.02;100438.00;5055240;28;20139;-68
2022/09/05 07:35:36;;;;;;;1.00;0.90;;;;;;;19.95;69.85;100449.84;5055244;28;20055;-69
2022/09/05 07:38:17;;;;;;;0.90;0.77;;;;;;;19.97;69.52;100441.16;5055202;28;20057;-69
2022/09/05 07:40:52;;;;;;;0.65;0.65;;;;;;;20.11;69.42;100442.53;5055514;28;20442;-69
2022/09/05 07:43:26;;;;;;;1.10;0.70;;;;;;;20.19;69.21;100445.75;5054855;28;20072;-69
2022/09/05 07:46:10;;;;;;;0.93;0.85;;;;;;;20.26;69.01;100440.38;5057772;28;20084;-69
2022/09/05 07:48:43;;;;;;;0.70;0.70;;;;;;;20.40;69.28;100439.97;5057828;28;20045;-69
2022/09/05 07:51:20;;;;;;;1.05;0.93;;;;;;;20.49;68.57;100437.97;5058956;28;20068;-69
2022/09/05 07:54:17;;;;;;;1.10;1.00;;;;;;;20.54;68.41;100432.66;5064168;28;20033;-69
2022/09/05 07:57:09;;;;;;;0.88;0.88;;;;;;;20.67;67.94;100444.38;5063520;28;20032;-69
2022/09/05 08:00:05;;;;;;;4.18;1.65;;;;;;;20.71;67.18;100448.56;5065107;28;20115;-70
2022/09/05 08:02:43;;;;;;;1.20;0.82;;;;;;;20.81;66.68;100442.22;5063685;28;20119;-68
2022/09/05 08:05:20;;;;;;;2.43;1.37;;;;;;;20.85;65.97;100443.81;5074526;28;20048;-67
2022/09/05 08:08:08;;;;;;;0.95;0.85;;;;;;;20.89;65.53;100440.25;5074374;28;20494;-69
2022/09/05 08:10:45;;;;;;;1.65;1.15;;;;;;;20.99;65.28;100439.06;5072370;28;20123;-68
2022/09/05 08:13:53;;;;;;;1.15;1.05;;;;;;;21.15;65.11;100440.31;5054307;28;20048;-68
2022/09/05 08:16:42;;;;;;;0.70;0.65;;;;;;;21.27;64.72;100436.47;5052911;28;20045;-69
2022/09/05 08:19:35;;;;;;;1.85;1.60;;;;;;;21.38;64.67;100430.94;5053675;28;20131;-69
2022/09/05 08:22:07;;;;;;;0.68;0.68;;;;;;;21.48;63.94;100429.72;5053116;28;20399;-69
2022/09/05 08:24:39;;;;;;;1.95;1.02;;;;;;;21.51;63.81;100434.81;5054590;28;20053;-70
2022/09/05 08:27:17;;;;;;;0.68;0.68;;;;;;;21.62;64.43;100427.53;5054105;28;20448;-69
2022/09/05 08:29:52;;;;;;;0.70;0.70;;;;;;;21.84;63.77;100420.66;5054211;28;20057;-69
2022/09/05 08:32:47;;;;;;;0.90;0.70;;;;;;;21.96;63.28;100420.28;5054187;28;20442;-69
2022/09/05 08:35:25;;;;;;;0.68;0.68;;;;;;;22.01;62.57;100415.75;5053661;28;20127;-69
2022/09/05 08:37:57;;;;;;;1.35;1.25;;;;;;;22.07;62.71;100419.91;5053563;28;20508;-69
2022/09/05 08:40:31;;;;;;;1.05;0.80;;;;;;;22.19;62.95;100419.47;5053268;28;20056;-69
2022/09/05 08:43:13;;;;;;;2.17;1.20;;;;;;;22.23;62.24;100419.28;5052557;28;20057;-69
2022/09/05 08:46:07;;;;;;;0.75;0.65;;;;;;;22.29;61.54;100411.25;5054119;28;20091;-67
2022/09/05 08:49:20;;;;;;;3.70;0.93;;;;;;;22.34;60.28;100413.72;5053924;28;20047;-69
2022/09/05 08:52:11;;;;;;;1.17;1.07;;;;;;;22.39;60.66;100406.56;5053601;28;20120;-69
2022/09/05 08:54:56;;;;;;;1.05;0.95;;;;;;;22.45;60.33;100402.00;5053865;28;20398;-69
2022/09/05 08:58:03;;;;;;;0.88;0.73;;;;;;;22.54;61.32;100403.38;5053798;28;20136;-69
2022/09/05 09:00:43;;;;;;;0.75;0.75;;;;;;;22.69;60.38;100405.44;5046993;28;20090;-69
2022/09/05 09:03:30;;;;;;;1.85;1.40;;;;;;;22.76;59.65;100396.50;5053797;28;20080;-68
2022/09/05 09:06:22;;;;;;;0.65;0.65;;;;;;;22.77;58.51;100392.13;5053235;28;20049;-68
2022/09/05 09:09:10;;;;;;;1.05;0.73;;;;;;;22.79;58.45;100400.72;5053294;28;20495;-69
2022/09/05 09:11:47;;;;;;;1.00;0.90;;;;;;;22.90;58.47;100398.53;5053373;28;20137;-69
2022/09/05 09:14:34;;;;;;;0.60;0.60;;;;;;;22.91;57.94;100395.03;5053580;28;20411;-69
2022/09/05 09:17:19;;;;;;;0.65;0.65;;;;;;;23.01;57.65;100385.97;5053500;28;20045;-69
2022/09/05 09:19:53;;;;;;;0.95;0.85;;;;;;;23.18;57.09;100393.91;5062572;28;20045;-68
2022/09/05 09:22:38;;;;;;;1.23;1.00;;;;;;;23.35;56.16;100391.50;5063896;28;20475;-69
2022/09/05 09:25:12;;;;;;;0.65;0.63;;;;;;;23.39;56.08;100398.28;5059501;28;20034;-68
2022/09/05 09:28:11;;;;;;;0.80;0.80;;;;;;;23.46;56.58;100396.28;5053288;28;20041;-69
2022/09/05 09:31:14;;;;;;;0.68;0.68;;;;;;;23.30;56.18;100389.03;5059463;28;20528;-69
2022/09/05 09:33:52;;;;;;;0.30;0.30;;;;;;;23.40;56.33;100383.47;5055519;28;20052;-68
2022/09/05 09:36:53;;;;;;;0.65;0.63;;;;;;;23.49;55.77;100389.16;5053091;28;20055;-69
2022/09/05 09:39:33;;;;;;;0.88;0.68;;;;;;;23.52;55.71;100394.25;5048938;28;20082;-68
2022/09/05 09:42:23;;;;;;;0.60;0.60;;;;;;;23.54;55.69;100382.00;5053103;28;20057;-68
2022/09/05 09:45:23;;;;;;;0.70;0.70;;;;;;;23.73;56.22;100382.88;5053632;28;20091;-68
2022/09/05 09:48:27;;;;;;;0.60;0.60;;;;;;;23.93;55.42;100375.06;5052932;28;20099;-68
2022/09/05 09:51:37;;;;;;;0.90;0.70;;;;;;;24.22;55.50;100370.31;5067502;28;20049;-68
2022/09/05 09:54:28;;;;;;;1.13;0.80;;;;;;;24.21;54.95;100368.66;5036135;28;20043;-70
2022/09/05 09:57:22;;;;;;;0.80;0.80;;;;;;;24.17;54.37;100351.41;5077097;28;20071;-68
2022/09/05 10:00:06;;;;;;;0.80;0.80;;;;;;;24.31;54.61;100369.88;5069379;28;20491;-67
2022/09/05 10:03:07;;;;;;;1.10;1.00;;;;;;;24.53;54.71;100357.53;5058957;28;20537;-68
2022/09/05 10:06:15;;;;;;;0.77;0.77;;;;;;;24.62;54.40;100363.19;5053271;28;20140;-68
2022/09/05 10:09:24;;;;;;;1.10;1.02;;;;;;;24.79;54.83;100357.19;5056070;28;20098;-70
2022/09/05 10:12:46;;;;;;;0.90;0.82;;;;;;;24.82;53.79;100370.09;5062018;28;20040;-67
2022/09/05 10:15:26;;;;;;;1.05;1.00;;;;;;;24.99;53.08;100358.84;5026297;28;20056;-68
2022/09/05 10:18:24;;;;;;;0.55;0.55;;;;;;;25.04;52.71;100356.84;5056821;28;20063;-67
2022/09/05 10:21:24;;;;;;;0.70;0.60;;;;;;;25.14;52.59;100352.88;5056529;28;20053;-67
2022/09/05 10:24:25;;;;;;;0.60;0.60;;;;;;;25.13;52.28;100352.00;5064100;28;20080;-68
2022/09/05 10:27:13;;;;;;;0.50;0.50;;;;;;;25.21;52.26;100360.31;5056244;28;20042;-67
2022/09/05 10:30:00;;;;;;;0.63;0.60;;;;;;;25.22;51.89;100351.53;5056283;28;20045;-68
2022/09/05 10:32:41;;;;;;;0.68;0.68;;;;;;;25.20;51.44;100339.47;5056117;28;20047;-68
2022/09/05 10:35:35;;;;;;;0.70;0.70;;;;;;;25.28;51.49;100338.19;5056197;28;20548;-67
2022/09/05 10:38:11;;;;;;;9.95;0.80;;;;;;;25.36;51.15;100336.94;5056470;28;20053;-68
2022/09/05 10:40:44;;;;;;;0.50;0.50;;;;;;;25.43;51.29;100335.72;5056331;28;20122;-68
2022/09/05 10:43:43;;;;;;;1.10;0.82;;;;;;;25.50;51.31;100334.50;5057599;28;20036;-68
2022/09/05 10:46:25;;;;;;;0.55;0.55;;;;;;;25.51;50.39;100325.72;5056264;28;20487;-68
2022/09/05 10:49:15;;;;;;;0.70;0.70;;;;;;;25.26;50.19;100320.88;5068774;28;20072;-68
2022/09/05 10:51:50;;;;;;;2.03;1.15;;;;;;;25.41;50.43;100324.50;5055756;28;20491;-69
2022/09/05 10:54:36;;;;;;;0.47;0.47;;;;;;;25.49;49.84;100322.34;5055756;28;20053;-69
2022/09/05 10:57:21;;;;;;;0.50;0.50;;;;;;;25.52;49.89;100312.59;5058152;28;20491;-69
2022/09/05 11:00:05;;;;;;;0.63;0.63;;;;;;;25.69;50.83;100306.47;5069108;28;20128;-69
2022/09/05 11:03:00;;;;;;;1.50;1.10;;;;;;;25.87;50.39;100305.47;5075085;28;20517;-69
2022/09/05 11:05:36;;;;;;;1.20;1.10;;;;;;;25.83;50.42;100311.81;5075674;28;20072;-69
2022/09/05 11:08:09;;;;;;;1.02;0.77;;;;;;;25.65;49.49;100302.34;5075355;28;20550;-69
2022/09/05 11:10:49;;;;;;;0.60;0.60;;;;;;;25.77;50.46;100304.31;5075476;28;20044;-69
2022/09/05 11:13:30;;;;;;;;;;;;;;;26.05;50.56;100301.88;5076169;28;20052;-68
2022/09/05 11:16:10;;;;;;;0.63;0.63;;;;;;;26.16;49.87;100304.78;5075420;28;19924;-69
2022/09/05 11:19:03;;;;;;;0.68;0.60;;;;;;;26.23;48.74;100300.91;5075602;28;20075;-69
2022/09/05 11:21:50;;;;;;;0.50;0.50;;;;;;;26.16;48.36;100293.47;5071758;28;20098;-69
2022/09/05 11:24:41;;;;;;;0.60;0.60;;;;;;;26.19;48.09;100294.16;5075388;28;20040;-69
2022/09/05 11:27:22;;;;;;;0.50;0.50;;;;;;;26.32;48.53;100295.16;5076214;28;20424;-69
2022/09/05 11:29:58;;;;;;;1.58;1.05;;;;;;;26.13;47.93;100289.25;5075083;28;20080;-69
2022/09/05 11:32:59;;;;;;;0.65;0.65;;;;;;;26.02;47.30;100288.97;5075499;28;20143;-70
2022/09/05 11:35:54;;;;;;;0.52;0.52;;;;;;;25.94;46.51;100292.00;5055945;28;20556;-68
2022/09/05 11:38:59;;;;;;;0.60;0.60;;;;;;;25.95;47.70;100290.22;5062486;28;20033;-68
2022/09/05 11:42:11;;;;;;;3.20;0.93;;;;;;;26.11;47.75;100285.00;5054717;28;20471;-68
2022/09/05 11:44:57;;;;;;;0.75;0.65;;;;;;;26.08;46.81;100286.03;5055023;28;20106;-68
2022/09/05 11:47:48;;;;;;;2.30;0.82;;;;;;;26.20;46.38;100287.97;5054814;28;20041;-68
2022/09/05 11:50:53;;;;;;;0.52;0.52;;;;;;;26.39;46.60;100293.91;5054899;28;20511;-69
2022/09/05 11:53:53;;;;;;;7.65;0.52;;;;;;;26.62;46.11;100282.13;5059850;28;20033;-69
2022/09/05 11:56:43;;;;;;;0.55;0.55;;;;;;;26.71;45.80;100288.59;5060582;28;20037;-68
2022/09/05 11:59:30;;;;;;;0.70;0.70;;;;;;;26.80;45.42;100275.03;5064203;28;20064;-69
2022/09/05 12:02:24;;;;;;;0.70;0.70;;;;;;;26.95;45.55;100277.59;5074458;28;20044;-69
2022/09/05 12:05:07;;;;;;;0.65;0.65;;;;;;;26.99;45.35;100286.13;5067758;28;20084;-68
2022/09/05 12:08:07;;;;;;;0.40;0.40;;;;;;;27.08;46.45;100275.09;5054188;28;20546;-69
2022/09/05 12:10:57;;;;;;;0.38;0.38;;;;;;;27.23;46.07;100276.81;5054407;28;20044;-69
2022/09/05 12:13:46;;;;;;;0.90;0.70;;;;;;;27.30;45.22;100275.50;5060901;28;20072;-69
2022/09/05 12:16:45;;;;;;;17.92;1.05;;;;;;;27.53;44.93;100272.38;5054894;28;20502;-69
2022/09/05 12:19:31;;;;;;;1.20;0.95;;;;;;;27.83;45.36;100273.09;5054565;28;20087;-69
2022/09/05 12:22:17;;;;;;;1.35;0.60;;;;;;;27.85;43.88;100273.00;5054303;28;20044;-68
2022/09/05 12:25:19;;;;;;;0.50;0.50;;;;;;;27.77;43.73;100264.75;5054409;28;20049;-69
2022/09/05 12:28:14;;;;;;;0.68;0.60;;;;;;;27.70;43.26;100269.56;5053805;28;20561;-70
2022/09/05 12:31:16;;;;;;;0.60;0.60;;;;;;;27.76;43.91;100263.91;5057070;28;20395;-69
2022/09/05 12:34:09;;;;;;;1.17;0.82;;;;;;;27.81;43.74;100261.03;5053786;28;20037;-69
2022/09/05 12:37:02;;;;;;;0.40;0.40;;;;;;;27.56;42.54;100264.31;5059881;28;20052;-68
2022/09/05 12:39:56;;;;;;;0.40;0.40;;;;;;;27.53;43.08;100266.25;5054015;28;20051;-69
2022/09/05 12:42:52;;;;;;;0.88;0.75;;;;;;;27.74;42.92;100255.28;5053654;28;20479;-68
2022/09/05 12:45:48;;;;;;;0.47;0.47;;;;;;;27.97;42.82;100250.41;5054077;28;20040;-69
2022/09/05 12:48:25;;;;;;;2.40;0.75;;;;;;;27.99;41.08;100249.34;5057094;28;20124;-68
2022/09/05 12:51:08;;;;;;;;;;;;;;;27.79;41.26;100250.59;5053720;28;20045;-70
2022/09/05 12:53:44;;;;;;;0.35;0.35;;;;;;;27.58;41.37;100245.84;5067430;28;19958;-69
2022/09/05 12:56:25;;;;;;;0.40;0.40;;;;;;;27.40;42.12;100244.38;5073807;28;20043;-68
2022/09/05 12:59:20;;;;;;;0.40;0.40;;;;;;;27.25;41.54;100239.09;5073494;28;20064;-69
2022/09/05 13:02:17;;;;;;;0.43;0.43;;;;;;;27.04;41.00;100242.16;5072775;28;20048;-70
2022/09/05 13:05:13;;;;;;;0.47;0.47;;;;;;;26.72;41.71;100241.38;5073529;28;20051;-68
2022/09/05 13:07:55;;;;;;;0.35;0.35;;;;;;;26.72;42.04;100244.00;5073050;28;20098;-70